Terminal Aerodrome Forecast
Issued by NWS Wichita, KS

Home | Current Version | Previous Version | Text Only | Print | Product List | Glossary Off
Versions: 1 2 3 4 5 6 7 8 9 10 11 12 13 14 15 16 17 18

000
FTUS43 KICT 170200 AAC
TAFICT
TAF AMD
KICT 170205Z 1702/1724 VRB03KT P6SM BKN200
     FM170300 36015G22KT P6SM BKN150
     FM170500 01012KT P6SM OVC120
     FM170900 04011KT P6SM VCSH OVC100
      TEMPO 1714/1718 6SM -RA OVC040=

USA.gov is the U.S. government's official web portal to all federal, state and local government web resources and services.